createdAt,value
2017-05-12T04:13:47.950Z,14.58
2017-05-12T04:17:22.175Z,14.43
2017-05-12T04:20:57.924Z,14.32
2017-05-12T04:22:47.229Z,14.28
2017-05-12T04:40:42.534Z,14.5
2017-05-12T05:17:39.499Z,14.87
2017-05-12T05:34:45.086Z,14.29
2017-05-12T05:37:09.984Z,14.24
2017-05-12T06:48:00.422Z,15.4
2017-05-12T06:51:49.868Z,15.47
2017-05-12T06:56:30.213Z,15.58
2017-05-12T09:18:38.574Z,36.77
2017-05-12T09:20:01.060Z,33.78
2017-05-12T09:21:30.014Z,35.46
2017-05-12T09:22:56.906Z,36.29
2017-05-12T09:24:18.837Z,36.03
2017-05-12T09:25:40.723Z,38.02
2017-05-12T09:27:02.556Z,40.9
2017-05-12T09:28:24.394Z,43.24
2017-05-12T09:29:46.307Z,43.36
2017-05-12T09:31:08.185Z,37.52
2017-05-12T09:32:30.012Z,34.2
2017-05-12T09:33:51.921Z,37.29
2017-05-12T09:35:13.971Z,39.36
2017-05-12T09:36:35.814Z,37.55
2017-05-12T09:37:57.668Z,38.22
2017-05-12T09:39:19.650Z,42.06
2017-05-12T09:40:41.563Z,44.5
2017-05-12T09:42:03.413Z,44.07
2017-05-12T09:43:31.959Z,38.55
2017-05-12T09:44:53.947Z,35.51
2017-05-12T09:46:15.830Z,37.32
2017-05-12T09:47:37.737Z,34.05
2017-05-12T09:48:59.755Z,31.44
2017-05-12T09:50:21.739Z,35.48
2017-05-12T09:51:43.889Z,40.2
2017-05-12T09:53:05.724Z,43.18
2017-05-12T09:54:27.634Z,45.24
2017-05-12T09:55:49.529Z,46.73
2017-05-12T09:57:11.360Z,47.95
2017-05-12T09:58:33.226Z,42
2017-05-12T09:59:55.138Z,42.74
2017-05-12T10:01:16.992Z,42.53
2017-05-12T10:02:38.985Z,39.49
2017-05-12T10:04:00.877Z,36.32
2017-05-12T10:05:22.863Z,34.69
2017-05-12T10:06:44.835Z,36.88
2017-05-12T10:08:09.510Z,43.13
2017-05-12T10:09:31.423Z,41.86
2017-05-12T10:10:53.295Z,39.4
2017-05-12T10:12:15.108Z,41.89
2017-05-12T10:13:37.042Z,42.08
2017-05-12T10:14:58.990Z,46.06
2017-05-12T10:16:20.979Z,45
2017-05-12T10:17:43.285Z,41.03
2017-05-12T10:19:05.196Z,38.7
2017-05-12T10:20:27.043Z,36.22
2017-05-12T10:21:49.049Z,34.57
2017-05-12T10:23:11.080Z,41.55
2017-05-12T10:24:33.249Z,46.67
2017-05-12T10:25:55.376Z,44.74
2017-05-12T10:27:17.409Z,-141.38
2017-05-12T10:28:39.372Z,-141.38
2017-05-12T10:30:01.187Z,-141.38
2017-05-12T10:31:23.002Z,-141.38
2017-05-12T10:32:44.893Z,-141.38
2017-05-12T10:34:06.812Z,-141.38
2017-05-12T10:35:28.643Z,-141.38
2017-05-12T10:36:50.545Z,-141.38
2017-05-12T10:38:12.672Z,-141.38
2017-05-12T10:39:34.585Z,-141.38
2017-05-12T10:40:56.465Z,-141.38
2017-05-12T10:42:18.319Z,-141.38
2017-05-12T10:43:40.204Z,-141.38
2017-05-12T10:45:07.922Z,-141.38
2017-05-12T10:46:29.745Z,-141.38
2017-05-12T10:47:51.612Z,-141.38
2017-05-12T10:49:13.577Z,-141.38
2017-05-12T10:50:45.340Z,-141.38
2017-05-12T10:52:07.135Z,-141.38
2017-05-12T10:53:29.087Z,-141.38
2017-05-12T10:54:52.075Z,-141.38
2017-05-12T10:56:14.029Z,-141.38
2017-05-12T10:57:35.885Z,-141.38
2017-05-12T10:58:57.809Z,-141.38
2017-05-12T11:00:19.687Z,-141.38
2017-05-12T11:01:41.595Z,-141.38
2017-05-12T11:03:03.514Z,-141.38
2017-05-12T11:04:25.472Z,-141.38
2017-05-12T11:05:53.379Z,-141.38
2017-05-12T11:07:20.941Z,-141.38
2017-05-12T11:08:43.452Z,-141.38
2017-05-12T11:10:08.404Z,-141.38
2017-05-12T11:11:30.759Z,-141.38
2017-05-12T11:12:54.739Z,-141.38
2017-05-12T11:14:17.123Z,-141.38
2017-05-12T11:15:39.943Z,-141.38
2017-05-12T11:17:05.436Z,-141.38
2017-05-12T11:18:31.610Z,-141.38
2017-05-12T11:23:24.558Z,-141.38
2017-05-12T11:24:51.016Z,-141.38
2017-05-12T11:26:17.857Z,-141.38
2017-05-12T11:27:43.111Z,-141.38
2017-05-12T11:29:06.755Z,-141.38
2017-05-12T11:30:30.562Z,-141.38
2017-05-12T11:31:53.470Z,-141.38
2017-05-12T11:33:16.858Z,-141.38
2017-05-12T11:34:40.459Z,-141.38
2017-05-12T11:36:03.154Z,-141.38
2017-05-12T11:37:25.900Z,-141.38
2017-05-12T11:38:48.506Z,-141.38
2017-05-12T11:40:11.143Z,-141.38
2017-05-12T11:41:33.603Z,-141.38
2017-05-12T11:42:55.910Z,-141.38
2017-05-12T11:44:18.004Z,-141.38
2017-05-12T11:45:40.128Z,-141.38
2017-05-12T11:47:11.889Z,-141.38
2017-05-12T11:48:44.316Z,-141.38
2017-05-12T11:50:06.375Z,-141.38
2017-05-12T11:51:28.453Z,-141.38
2017-05-12T11:52:50.277Z,-141.38
2017-05-12T11:54:12.713Z,-141.38
2017-05-12T11:55:36.469Z,-141.38
2017-05-12T11:56:58.871Z,-141.38
2017-05-12T11:58:20.822Z,-141.38
2017-05-12T11:59:42.734Z,-141.38
2017-05-12T12:01:04.551Z,-141.38
2017-05-12T12:02:26.580Z,-141.38
2017-05-12T12:03:48.508Z,-141.38
2017-05-12T12:05:10.430Z,-141.38
2017-05-12T12:06:32.344Z,-141.38
2017-05-12T12:07:55.056Z,-141.38
2017-05-12T12:09:23.548Z,-141.38
2017-05-12T12:10:45.445Z,-141.38
2017-05-12T12:12:07.333Z,-141.38
2017-05-12T12:13:29.152Z,-141.38
2017-05-12T12:14:51.029Z,-141.38
2017-05-12T12:16:12.964Z,-141.38
2017-05-12T12:17:34.909Z,-141.38
2017-05-12T12:20:28.336Z,-141.38
2017-05-12T12:21:50.280Z,-141.38
2017-05-12T12:23:12.121Z,-141.38
2017-05-12T12:24:34.172Z,-141.38
2017-05-12T12:25:56.149Z,-141.38
2017-05-12T12:27:17.936Z,-141.38
2017-05-12T12:28:39.862Z,-141.38
2017-05-12T12:30:09.759Z,-141.38
2017-05-12T12:31:31.583Z,-141.38
2017-05-12T12:32:53.404Z,-141.38
2017-05-12T12:34:15.403Z,-141.38
2017-05-12T12:35:37.232Z,-141.38
2017-05-12T12:36:59.163Z,-141.38
2017-05-12T12:38:21.137Z,-141.38
2017-05-12T12:39:42.977Z,-141.38
2017-05-12T12:41:04.817Z,-141.38
2017-05-12T12:42:26.644Z,-141.38
2017-05-12T12:43:48.459Z,-141.38
2017-05-12T12:45:10.363Z,-141.38
2017-05-12T12:46:32.245Z,-141.38
2017-05-12T12:47:54.164Z,-141.38
2017-05-12T12:49:16.031Z,-141.38
2017-05-12T12:50:47.691Z,-141.38
2017-05-12T12:52:09.721Z,-141.38
2017-05-12T12:53:31.737Z,-141.38
2017-05-12T12:54:53.606Z,-141.38
2017-05-12T12:56:15.485Z,-141.38
2017-05-12T12:57:37.345Z,-141.38
2017-05-12T12:58:59.228Z,-141.38
2017-05-12T13:00:21.130Z,-141.38
2017-05-12T13:01:42.960Z,-141.38
2017-05-12T13:03:04.813Z,-141.38
2017-05-12T13:04:26.797Z,-141.38
2017-05-12T13:05:48.610Z,-141.38
2017-05-12T13:07:10.535Z,-141.38
2017-05-12T13:08:32.366Z,-141.38
2017-05-12T13:09:54.294Z,-141.38
2017-05-12T13:11:16.123Z,-141.38
2017-05-12T13:12:38.019Z,-141.38
2017-05-12T13:13:59.885Z,-141.38
2017-05-12T13:15:21.802Z,-141.38
2017-05-12T13:16:43.687Z,-141.38
2017-05-12T13:18:05.632Z,-141.38
2017-05-12T13:19:27.582Z,-141.38
2017-05-12T13:20:49.494Z,-141.38
2017-05-12T13:22:11.333Z,-141.38
2017-05-12T13:23:33.239Z,-141.38
2017-05-12T13:24:55.028Z,-141.38
2017-05-12T13:26:16.887Z,-141.38
2017-05-12T13:27:38.691Z,-141.38
2017-05-12T13:29:00.418Z,-141.38
2017-05-12T13:30:22.264Z,-141.38
2017-05-12T13:31:56.162Z,-141.38
2017-05-12T13:33:18.340Z,-141.38
2017-05-12T13:34:40.212Z,-141.38
2017-05-12T13:36:01.947Z,-141.38
2017-05-12T13:37:23.721Z,-141.38
2017-05-12T13:38:45.523Z,-141.38
2017-05-12T13:40:07.343Z,-141.38
2017-05-12T13:41:30.142Z,-141.38
2017-05-12T13:42:52.101Z,-141.38
2017-05-12T13:44:13.849Z,-141.38
2017-05-12T13:45:35.645Z,-141.38
2017-05-12T13:46:57.380Z,-141.38
2017-05-12T13:48:19.289Z,-141.38
2017-05-12T13:49:41.139Z,-141.38
2017-05-12T13:51:02.900Z,-141.38
2017-05-12T13:52:24.675Z,-141.38
2017-05-12T13:53:46.516Z,-141.38
2017-05-12T13:55:08.281Z,-141.38
2017-05-12T13:56:30.103Z,-141.38
2017-05-12T13:57:51.929Z,-141.38
2017-05-12T13:59:13.869Z,-141.38
2017-05-12T14:00:35.654Z,-141.38
2017-05-12T14:01:57.408Z,-141.38
2017-05-12T14:03:19.366Z,-141.38
2017-05-12T14:04:41.163Z,-141.38
2017-05-12T14:06:03.022Z,-141.38
2017-05-12T14:07:24.768Z,-141.38
2017-05-12T14:08:46.470Z,-141.38
2017-05-12T14:10:08.334Z,-141.38
2017-05-12T14:11:30.073Z,-141.38
2017-05-12T14:12:51.868Z,-141.38
2017-05-12T14:14:13.730Z,-141.38
2017-05-12T14:15:49.779Z,-141.38
2017-05-12T14:17:11.498Z,-141.38
2017-05-12T14:18:33.234Z,-141.38
2017-05-12T14:19:55.017Z,-141.38
2017-05-12T14:21:16.760Z,-141.38
2017-05-12T14:22:38.607Z,-141.38
2017-05-12T14:24:00.385Z,-141.38
2017-05-12T14:25:23.200Z,-141.38
2017-05-12T14:26:45.027Z,-141.38
2017-05-12T14:28:06.809Z,-141.38
2017-05-12T14:29:28.834Z,-141.38
2017-05-12T14:30:50.681Z,-141.38
2017-05-12T14:32:12.534Z,-141.38
2017-05-12T14:33:34.397Z,-141.38
2017-05-12T14:34:56.542Z,-141.38
2017-05-12T14:36:26.207Z,-141.38
2017-05-12T14:37:48.069Z,-141.38
2017-05-12T14:39:09.940Z,-141.38
2017-05-12T14:40:31.719Z,-141.38
2017-05-12T14:41:53.851Z,-141.38
2017-05-12T14:43:15.916Z,-141.38
2017-05-12T14:44:37.712Z,-141.38
2017-05-12T14:45:59.572Z,-141.38
2017-05-12T14:47:21.465Z,-141.38
2017-05-12T14:48:43.363Z,-141.38
2017-05-12T14:50:05.158Z,-141.38
2017-05-12T14:51:26.956Z,-141.38
2017-05-12T14:52:48.827Z,-141.38
2017-05-12T14:54:10.782Z,-141.38
2017-05-12T14:55:32.600Z,-141.38
2017-05-12T14:56:54.422Z,-141.38
2017-05-12T14:58:16.331Z,-141.38
2017-05-12T14:59:38.174Z,-141.38
2017-05-12T15:01:00.013Z,-141.38
2017-05-12T15:02:21.932Z,-141.38
2017-05-12T15:03:43.868Z,-141.38
2017-05-12T15:05:05.688Z,-141.38
2017-05-12T15:06:27.594Z,-141.38
2017-05-12T15:07:49.469Z,-141.38
2017-05-12T15:09:11.355Z,-141.38
2017-05-12T15:10:33.341Z,-141.38
2017-05-12T15:11:55.146Z,-141.38
2017-05-12T15:13:16.918Z,-141.38
2017-05-12T15:14:38.785Z,-141.38
2017-05-12T15:16:00.877Z,-141.38
2017-05-12T15:17:34.684Z,-141.38
2017-05-12T15:18:56.584Z,-141.38
2017-05-12T15:20:18.490Z,-141.38
2017-05-12T15:21:40.346Z,-141.38
2017-05-12T15:23:02.237Z,-141.38
2017-05-12T15:24:24.014Z,-141.38
2017-05-12T15:25:45.940Z,-141.38
2017-05-12T15:27:17.599Z,-141.38
2017-05-12T15:28:39.462Z,-141.38
2017-05-12T15:30:01.294Z,-141.38
2017-05-12T15:31:23.123Z,-141.38
2017-05-12T15:32:45.307Z,-141.38
2017-05-12T15:34:07.123Z,-141.38
2017-05-12T15:35:28.985Z,-141.38
2017-05-12T15:36:50.900Z,-141.38
2017-05-12T15:38:19.208Z,-141.38
2017-05-12T15:39:46.525Z,-141.38
2017-05-12T15:41:08.409Z,-141.38
2017-05-12T15:42:30.242Z,-141.38
2017-05-12T15:43:52.269Z,-141.38
2017-05-12T15:45:14.221Z,-141.38
2017-05-12T15:46:36.176Z,-141.38
2017-05-12T15:47:58.057Z,-141.38
2017-05-12T15:49:39.894Z,-141.38
2017-05-12T15:51:37.397Z,-141.38
2017-05-12T15:53:12.350Z,-141.38
2017-05-12T15:54:34.433Z,-141.38
2017-05-12T15:55:57.335Z,-141.38
2017-05-12T15:57:19.209Z,-141.38
2017-05-12T15:59:59.122Z,0
2017-05-12T16:01:20.954Z,0
2017-05-12T16:02:42.769Z,0
2017-05-12T16:04:04.752Z,0
2017-05-12T16:05:26.579Z,0
2017-05-12T16:06:48.351Z,0
2017-05-12T16:08:10.248Z,0
2017-05-12T16:09:32.246Z,0
2017-05-12T16:10:55.302Z,0
2017-05-12T16:12:17.130Z,0
2017-05-12T16:13:39.029Z,0
2017-05-12T16:15:00.965Z,0
2017-05-12T16:16:23.025Z,0
2017-05-12T16:17:44.864Z,0
2017-05-12T16:19:06.738Z,0
2017-05-12T16:20:28.600Z,0
2017-05-12T16:21:50.406Z,0
2017-05-12T16:23:12.297Z,0
2017-05-12T16:24:34.148Z,0
2017-05-12T16:25:56.042Z,0
2017-05-12T16:27:19.020Z,0
2017-05-12T16:28:41.373Z,0
2017-05-12T16:30:03.309Z,0
2017-05-12T16:31:29.927Z,0
2017-05-12T16:32:51.822Z,0
2017-05-12T16:34:13.665Z,0
2017-05-12T16:35:35.488Z,0
2017-05-12T16:36:57.300Z,0
2017-05-12T16:38:19.200Z,0
2017-05-12T16:39:41.003Z,0
2017-05-12T16:41:03.852Z,0
2017-05-12T16:42:25.792Z,0
2017-05-12T16:43:47.685Z,0
2017-05-12T16:45:09.692Z,0
2017-05-12T16:46:31.713Z,0
2017-05-12T16:47:53.581Z,0
2017-05-12T16:49:15.536Z,0
2017-05-12T16:50:37.462Z,0
2017-05-12T16:52:02.434Z,0
2017-05-12T16:53:24.368Z,0
2017-05-12T16:54:46.323Z,0
2017-05-12T16:56:08.218Z,0
2017-05-12T16:57:30.142Z,0
2017-05-12T16:58:52.004Z,0
2017-05-12T17:00:14.037Z,0
2017-05-12T17:01:36.253Z,0
2017-05-12T17:02:58.360Z,0
2017-05-12T17:04:20.281Z,0
2017-05-12T17:05:42.249Z,0
2017-05-12T17:07:04.138Z,0
2017-05-12T17:08:26.115Z,0
2017-05-12T17:09:48.053Z,0
2017-05-12T17:11:09.918Z,0
2017-05-12T17:12:31.847Z,0
2017-05-12T17:14:05.184Z,0
2017-05-12T17:15:27.170Z,0
2017-05-12T17:16:49.207Z,0
2017-05-12T17:18:11.212Z,0
2017-05-12T17:19:33.189Z,0
2017-05-12T17:20:55.130Z,0
2017-05-12T17:22:17.205Z,0
2017-05-12T17:23:39.109Z,0
2017-05-12T17:25:01.045Z,0
2017-05-12T17:26:22.958Z,0
2017-05-12T17:27:44.843Z,0
2017-05-12T17:29:06.822Z,0
2017-05-12T17:30:28.696Z,0
2017-05-12T17:31:50.579Z,0
2017-05-12T17:33:22.324Z,0
2017-05-12T17:34:50.082Z,0
2017-05-12T17:36:12.613Z,0
2017-05-12T17:37:34.831Z,0
2017-05-12T17:38:56.972Z,0
2017-05-12T17:40:19.061Z,0
2017-05-12T17:41:41.597Z,0
2017-05-12T17:43:04.988Z,0
2017-05-12T17:44:32.284Z,0
2017-05-12T17:46:17.903Z,0
2017-05-12T17:47:42.258Z,0
2017-05-12T17:49:15.845Z,0
2017-05-12T17:50:54.512Z,0
2017-05-12T17:54:37.736Z,0
2017-05-12T17:56:30.340Z,0
2017-05-12T18:02:08.674Z,0
2017-05-12T18:03:32.496Z,0
2017-05-12T18:04:58.197Z,0
2017-05-12T18:06:37.582Z,0
2017-05-12T18:08:03.244Z,0
2017-05-12T18:14:23.946Z,0
2017-05-12T18:15:53.112Z,0
2017-05-12T18:17:31.947Z,0
2017-05-12T18:19:11.057Z,0
2017-05-12T18:32:05.604Z,0
2017-05-12T18:40:35.895Z,0
2017-05-12T18:51:09.878Z,0
2017-05-12T18:52:59.539Z,0
2017-05-12T18:56:20.570Z,0
2017-05-12T19:20:25.954Z,0
2017-05-12T19:23:46.171Z,0
2017-05-12T19:28:00.565Z,0
2017-05-12T19:32:04.030Z,0
2017-05-12T19:33:31.277Z,0
2017-05-12T19:48:55.064Z,0
2017-05-12T19:53:35.053Z,0
2017-05-12T19:55:05.332Z,0
2017-05-12T19:56:35.527Z,0
2017-05-12T19:58:06.409Z,0
2017-05-12T19:59:47.106Z,0
2017-05-12T20:01:26.574Z,0
